Terminal Aerodrome Forecast
Issued by NWS Sterling, VA

Current Version | Previous Version | Graphics & Text | Print | Product List | Glossary On
Versions: 1 2 3 4 5 6 7 8 9 10 11 12 13 14
000
FTUS41 KLWX 252000 AAA
TAFIAD
TAF AMD
KIAD 252038Z 2521/2624 31012G19KT P6SM FEW050
     FM252200 30009KT P6SM FEW250
     FM260600 VRB03KT P6SM SKC=

USA.gov is the U.S. government's official web portal to all federal, state and local government web resources and services.